Galesburg, Iowa
Current Conditions -  °F | °C
As of 2:15 AM on Thursday 27 Nov 2014 (Local Time) from KTNU Reporting Station
Overcast Overcast  
Wind Chill: -16°   Ceiling: 2100
Heat Index: -7°   Visibility: 10mi
Dew Point: -10°   Wind: 18mph
Humidity: 80%   Direction: 320°NW
Pressure: 30.4"   Gusts: 24mph
Location:  41.587°N, 93.0159°W
Report Text: KTNU 270815Z AUTO 32016G21KT 10SM FEW012 OVC021 M07/M10 A3040 RMK AO2
Loading
Personal Weather Stations






























Interactive Weather Map New forecast layout! Learn more

10-Day Weather Forecast

Advertisements
Track Severe Weather on mobile